createdAt,value
2018-03-19T00:04:56.999Z,0.90
2018-03-19T00:07:24.157Z,0.90
2018-03-19T00:09:51.213Z,0.90
2018-03-19T00:12:18.258Z,1.10
2018-03-19T00:14:45.297Z,1.00
2018-03-19T00:17:12.356Z,0.90
2018-03-19T00:19:39.333Z,1.00
2018-03-19T00:22:07.164Z,1.00
2018-03-19T00:24:34.109Z,1.00
2018-03-19T00:27:01.167Z,1.07
2018-03-19T00:29:28.313Z,1.03
2018-03-19T00:31:55.371Z,0.93
2018-03-19T00:34:22.408Z,0.93
2018-03-19T00:36:49.469Z,0.90
2018-03-19T00:39:16.517Z,0.60
2018-03-19T00:41:43.571Z,0.60
2018-03-19T00:44:10.615Z,0.60
2018-03-19T00:46:37.658Z,0.70
2018-03-19T00:49:04.718Z,0.80
2018-03-19T00:51:31.652Z,0.60
2018-03-19T00:53:58.704Z,0.60
2018-03-19T00:56:25.966Z,0.80
2018-03-19T00:58:53.014Z,0.70
2018-03-19T01:01:20.063Z,1.00
2018-03-19T01:03:47.206Z,0.90
2018-03-19T01:06:14.258Z,1.00
2018-03-19T01:08:41.519Z,0.97
2018-03-19T01:11:08.568Z,1.20
2018-03-19T01:13:35.610Z,1.50
2018-03-19T01:16:02.872Z,1.10
2018-03-19T01:18:31.662Z,1.20
2018-03-19T01:20:58.711Z,1.00
2018-03-19T01:23:25.750Z,0.93
2018-03-19T01:25:52.820Z,1.00
2018-03-19T01:28:19.892Z,1.17
2018-03-19T01:30:47.516Z,0.80
2018-03-19T01:33:14.572Z,0.80
2018-03-19T01:35:41.511Z,0.83
2018-03-19T01:38:08.458Z,0.70
2018-03-19T01:40:35.505Z,0.60
2018-03-19T01:43:02.565Z,0.80
2018-03-19T01:45:29.505Z,1.13
2018-03-19T01:47:56.449Z,0.90
2018-03-19T01:50:23.398Z,1.00
2018-03-19T01:52:50.447Z,0.70
2018-03-19T01:55:17.710Z,0.70
2018-03-19T01:57:44.749Z,0.77
2018-03-19T02:00:11.801Z,0.60
2018-03-19T02:02:38.851Z,0.70
2018-03-19T02:05:05.901Z,0.70
2018-03-19T02:07:32.956Z,0.80
2018-03-19T02:10:00.006Z,0.60
2018-03-19T02:12:27.045Z,0.77
2018-03-19T02:14:54.098Z,0.70
2018-03-19T02:17:21.153Z,0.60
2018-03-19T02:19:48.202Z,0.70
2018-03-19T02:22:15.142Z,0.53
2018-03-19T02:24:42.196Z,0.60
2018-03-19T02:27:09.250Z,0.60
2018-03-19T02:29:36.298Z,0.60
2018-03-19T02:32:03.343Z,0.70
2018-03-19T02:34:30.400Z,0.60
2018-03-19T02:36:58.362Z,0.60
2018-03-19T02:39:25.412Z,0.50
2018-03-19T02:41:52.742Z,0.60
2018-03-19T02:44:20.631Z,0.43
2018-03-19T02:46:47.684Z,0.40
2018-03-19T02:49:14.844Z,0.40
2018-03-19T02:51:41.881Z,0.50
2018-03-19T02:54:08.933Z,0.40
2018-03-19T02:56:35.993Z,0.50
2018-03-19T02:59:03.031Z,0.40
2018-03-19T03:01:30.080Z,0.60
2018-03-19T03:03:57.031Z,0.50
2018-03-19T03:06:24.086Z,0.50
2018-03-19T03:08:51.137Z,0.50
2018-03-19T03:11:18.186Z,0.53
2018-03-19T03:13:45.226Z,0.60
2018-03-19T03:16:12.285Z,0.60
2018-03-19T03:18:39.323Z,0.50
2018-03-19T03:21:06.273Z,0.50
2018-03-19T03:23:33.323Z,0.60
2018-03-19T03:26:00.379Z,0.70
2018-03-19T03:28:27.316Z,0.80
2018-03-19T03:30:54.377Z,0.80
2018-03-19T03:33:21.419Z,0.70
2018-03-19T03:35:48.470Z,0.70
2018-03-19T03:38:15.515Z,0.63
2018-03-19T03:40:42.779Z,0.90
2018-03-19T03:43:10.223Z,0.70
2018-03-19T03:45:38.106Z,0.80
2018-03-19T03:48:05.154Z,0.70
2018-03-19T03:50:32.194Z,0.60
2018-03-19T03:52:59.244Z,0.60
2018-03-19T03:55:26.303Z,0.70
2018-03-19T03:57:53.345Z,1.10
2018-03-19T04:00:20.504Z,0.97
2018-03-19T04:02:47.652Z,0.90
2018-03-19T04:05:15.021Z,1.00
2018-03-19T04:07:43.589Z,1.00
2018-03-19T04:10:10.779Z,0.80
2018-03-19T04:12:38.402Z,0.70
2018-03-19T04:15:05.462Z,0.57
2018-03-19T04:17:32.399Z,0.60
2018-03-19T04:19:59.460Z,0.50
2018-03-19T04:22:26.716Z,0.60
2018-03-19T04:24:53.660Z,0.50
2018-03-19T04:27:20.709Z,0.60
2018-03-19T04:29:47.751Z,0.60
2018-03-19T04:32:14.713Z,0.50
2018-03-19T04:34:41.747Z,0.50
2018-03-19T04:37:08.702Z,0.67
2018-03-19T04:39:35.843Z,0.70
2018-03-19T04:42:02.892Z,0.60
2018-03-19T04:44:30.765Z,0.50
2018-03-19T04:46:57.822Z,0.60
2018-03-19T04:49:24.870Z,0.50
2018-03-19T04:51:51.912Z,0.60
2018-03-19T04:54:18.857Z,0.47
2018-03-19T04:56:45.808Z,0.50
2018-03-19T04:59:12.864Z,0.60
2018-03-19T05:01:39.916Z,0.50
2018-03-19T05:04:06.852Z,0.63
2018-03-19T05:06:33.712Z,0.70
2018-03-19T05:09:00.951Z,0.60
2018-03-19T05:11:28.010Z,0.70
2018-03-19T05:13:55.053Z,0.53
2018-03-19T05:16:22.197Z,0.60
2018-03-19T05:18:49.148Z,0.50
2018-03-19T05:21:16.105Z,0.40
2018-03-19T05:23:43.244Z,0.60
2018-03-19T05:26:10.233Z,0.50
2018-03-19T05:28:38.173Z,0.50
2018-03-19T05:31:05.525Z,0.50
2018-03-19T05:33:32.571Z,0.50
2018-03-19T05:35:59.620Z,0.67
2018-03-19T05:38:26.784Z,0.60
2018-03-19T05:40:53.831Z,0.57
2018-03-19T05:43:20.882Z,0.50
2018-03-19T05:45:48.308Z,0.70
2018-03-19T05:48:15.376Z,0.50
2018-03-19T05:50:42.426Z,0.57
2018-03-19T05:53:09.477Z,0.73
2018-03-19T05:55:36.426Z,0.60
2018-03-19T05:58:03.576Z,0.80
2018-03-19T06:00:30.729Z,0.70
2018-03-19T06:02:57.677Z,0.87
2018-03-19T06:05:24.732Z,0.73
2018-03-19T06:07:51.792Z,0.70
2018-03-19T06:10:19.026Z,0.53
2018-03-19T06:12:46.084Z,0.67
2018-03-19T06:15:13.236Z,0.70
2018-03-19T06:17:40.280Z,0.80
2018-03-19T06:20:07.233Z,0.70
2018-03-19T06:22:34.312Z,0.70
2018-03-19T06:25:02.142Z,0.90
2018-03-19T06:27:28.985Z,0.70
2018-03-19T06:29:56.035Z,0.70
2018-03-19T06:32:23.087Z,0.60
2018-03-19T06:34:50.143Z,0.70
2018-03-19T06:37:17.192Z,0.60
2018-03-19T06:43:14.483Z,0.70
2018-03-19T06:45:41.448Z,0.90
2018-03-19T06:48:09.181Z,1.10
2018-03-19T06:50:36.536Z,0.80
2018-03-19T06:53:03.592Z,0.80
2018-03-19T06:55:31.354Z,0.80
2018-03-19T06:57:58.408Z,0.70
2018-03-19T07:00:26.380Z,0.70
2018-03-19T07:02:53.317Z,0.67
2018-03-19T07:05:20.469Z,0.70
2018-03-19T07:07:47.422Z,0.80
2018-03-19T07:10:14.392Z,0.80
2018-03-19T07:12:41.271Z,0.70
2018-03-19T07:15:08.265Z,0.90
2018-03-19T07:17:35.652Z,1.20
2018-03-19T07:20:03.490Z,1.40
2018-03-19T07:22:31.167Z,1.20
2018-03-19T07:24:58.758Z,1.20
2018-03-19T07:27:26.416Z,1.10
2018-03-19T07:29:54.069Z,0.90
2018-03-19T07:32:21.732Z,0.87
2018-03-19T07:34:48.590Z,1.30
2018-03-19T07:37:16.246Z,1.20
2018-03-19T07:39:43.903Z,1.17
2018-03-19T07:42:11.582Z,1.00
2018-03-19T07:44:39.270Z,1.20
2018-03-19T07:47:06.157Z,1.17
2018-03-19T07:49:33.070Z,1.20
2018-03-19T07:52:00.011Z,1.10
2018-03-19T07:54:46.920Z,1.20
2018-03-19T08:00:08.348Z,1.10
2018-03-19T08:02:35.291Z,1.20
2018-03-19T08:05:02.881Z,1.13
2018-03-19T08:07:29.709Z,1.30
2018-03-19T08:09:56.606Z,1.50
2018-03-19T08:12:23.581Z,1.40
2018-03-19T08:14:59.105Z,2.90
2018-03-19T08:17:26.085Z,1.70
2018-03-19T08:19:53.770Z,3.90
2018-03-19T08:22:20.673Z,4.03
2018-03-19T08:24:48.388Z,2.23
2018-03-19T08:27:17.497Z,1.60
2018-03-19T08:29:44.423Z,3.33
2018-03-19T08:32:11.315Z,3.40
2018-03-19T08:34:38.283Z,2.60
2018-03-19T08:37:05.950Z,2.40
2018-03-19T08:39:33.661Z,1.40
2018-03-19T08:42:00.546Z,1.00
2018-03-19T08:44:27.422Z,1.00
2018-03-19T08:46:55.097Z,1.10
2018-03-19T08:49:21.956Z,0.80
2018-03-19T08:51:48.845Z,0.80
2018-03-19T08:54:15.688Z,0.80
2018-03-19T08:56:42.638Z,0.70
2018-03-19T08:59:09.672Z,0.80
2018-03-19T09:01:36.591Z,1.00
2018-03-19T09:04:03.542Z,0.90
2018-03-19T09:06:30.476Z,0.70
2018-03-19T09:08:57.434Z,1.23
2018-03-19T09:11:24.425Z,1.00
2018-03-19T09:13:51.502Z,0.70
2018-03-19T09:16:18.604Z,0.70
2018-03-19T09:18:45.504Z,0.80
2018-03-19T09:21:13.168Z,0.70
2018-03-19T09:23:40.297Z,1.00
2018-03-19T09:26:07.887Z,0.90
2018-03-19T09:28:34.854Z,0.80
2018-03-19T09:31:01.769Z,1.00
2018-03-19T09:33:28.661Z,0.53
2018-03-19T09:35:55.550Z,0.50
2018-03-19T09:38:23.177Z,0.60
2018-03-19T09:40:50.082Z,0.60
2018-03-19T09:43:16.910Z,0.80
2018-03-19T09:45:44.574Z,0.90
2018-03-19T09:48:11.556Z,1.10
2018-03-19T09:50:38.523Z,0.97
2018-03-19T09:53:05.332Z,0.70
2018-03-19T09:55:32.218Z,0.80
2018-03-19T09:57:59.103Z,0.60
2018-03-19T10:00:26.712Z,0.90
2018-03-19T10:02:53.629Z,0.93
2018-03-19T10:05:20.840Z,0.77
2018-03-19T10:07:47.936Z,0.70
2018-03-19T10:10:14.946Z,0.73
2018-03-19T10:12:42.641Z,1.30
2018-03-19T10:15:24.026Z,0.90
2018-03-19T10:17:51.017Z,0.80
2018-03-19T10:20:18.308Z,0.77
2018-03-19T10:22:45.965Z,0.60
2018-03-19T10:25:13.673Z,0.70
2018-03-19T10:27:40.545Z,0.70
2018-03-19T10:30:07.425Z,0.70
2018-03-19T10:32:35.102Z,0.63
2018-03-19T10:35:02.859Z,0.67
2018-03-19T10:37:30.518Z,0.70
2018-03-19T10:39:58.147Z,1.20
2018-03-19T10:42:25.189Z,1.00
2018-03-19T10:44:52.050Z,0.90
2018-03-19T10:47:19.063Z,1.00
2018-03-19T10:49:46.057Z,2.83
2018-03-19T10:52:13.089Z,4.20
2018-03-19T10:54:40.143Z,2.57
2018-03-19T10:57:07.046Z,1.80
2018-03-19T10:59:33.956Z,0.83
2018-03-19T11:02:07.631Z,0.77
2018-03-19T11:04:34.592Z,0.60
2018-03-19T11:07:07.497Z,0.70
2018-03-19T11:09:35.202Z,0.70
2018-03-19T11:12:02.237Z,0.60
2018-03-19T11:14:38.762Z,0.90
2018-03-19T11:17:05.801Z,1.10
2018-03-19T11:19:32.828Z,0.80
2018-03-19T11:21:59.691Z,1.00
2018-03-19T11:24:26.607Z,0.97
2018-03-19T11:26:53.467Z,0.70
2018-03-19T11:29:20.308Z,0.67
2018-03-19T11:31:47.223Z,0.70
2018-03-19T11:34:14.121Z,0.70
2018-03-19T11:36:41.003Z,0.70
2018-03-19T11:39:08.591Z,0.60
2018-03-19T11:41:35.584Z,0.73
2018-03-19T11:44:02.503Z,1.00
2018-03-19T11:46:29.517Z,0.70
2018-03-19T11:48:56.534Z,0.60
2018-03-19T11:51:23.490Z,0.70
2018-03-19T11:53:50.389Z,1.00
2018-03-19T11:56:17.242Z,0.80
2018-03-19T11:58:44.093Z,0.80
2018-03-19T12:01:10.955Z,0.70
2018-03-19T12:03:37.843Z,0.80
2018-03-19T12:06:04.778Z,1.10
2018-03-19T12:08:32.963Z,1.60
2018-03-19T12:11:00.689Z,1.63
2018-03-19T12:13:27.527Z,2.80
2018-03-19T12:15:54.544Z,2.83
2018-03-19T12:18:21.422Z,1.50
2018-03-19T12:20:48.384Z,1.30
2018-03-19T12:23:15.279Z,1.53
2018-03-19T12:25:42.111Z,1.60
2018-03-19T12:28:08.924Z,2.00
2018-03-19T12:30:35.958Z,1.50
2018-03-19T12:33:02.940Z,1.10
2018-03-19T12:35:30.596Z,0.87
2018-03-19T12:37:58.238Z,0.90
2018-03-19T12:40:25.123Z,1.07
2018-03-19T12:42:52.079Z,1.10
2018-03-19T12:45:19.280Z,1.50
2018-03-19T12:47:46.187Z,1.40
2018-03-19T12:50:13.052Z,1.40
2018-03-19T12:52:39.953Z,1.57
2018-03-19T12:55:07.596Z,1.90
2018-03-19T12:57:35.213Z,2.30
2018-03-19T13:00:02.191Z,2.27
2018-03-19T13:02:29.946Z,2.20
2018-03-19T13:04:56.845Z,1.93
2018-03-19T13:07:23.692Z,2.30
2018-03-19T13:09:51.358Z,7.10
2018-03-19T13:12:18.316Z,4.00
2018-03-19T13:15:04.364Z,2.30
2018-03-19T13:17:31.344Z,2.30
2018-03-19T13:19:58.318Z,3.37
2018-03-19T13:22:25.189Z,2.50
2018-03-19T13:24:52.034Z,1.83
2018-03-19T13:27:18.942Z,3.27
2018-03-19T13:29:45.838Z,4.37
2018-03-19T13:32:12.871Z,5.93
2018-03-19T13:34:40.817Z,6.90
2018-03-19T13:37:07.694Z,6.83
2018-03-19T13:39:34.666Z,2.60
2018-03-19T13:42:02.304Z,2.63
2018-03-19T13:44:29.183Z,3.20
2018-03-19T13:46:56.849Z,2.60
2018-03-19T13:49:24.546Z,3.07
2018-03-19T13:51:51.453Z,2.33
2018-03-19T13:54:19.075Z,2.10
2018-03-19T13:56:45.923Z,4.50
2018-03-19T13:59:12.982Z,2.57
2018-03-19T14:01:39.840Z,2.43
2018-03-19T14:04:06.753Z,3.97
2018-03-19T14:06:33.721Z,3.20
2018-03-19T14:09:00.617Z,2.27
2018-03-19T14:11:28.058Z,9.13
2018-03-19T14:13:55.730Z,5.63
2018-03-19T14:16:22.683Z,2.93
2018-03-19T14:18:49.637Z,2.00
2018-03-19T14:21:16.449Z,1.90
2018-03-19T14:23:43.987Z,2.40
2018-03-19T14:26:10.933Z,1.73
2018-03-19T14:28:37.962Z,1.90
2018-03-19T14:31:05.267Z,1.77
2018-03-19T14:33:32.879Z,2.00
2018-03-19T14:35:59.687Z,2.57
2018-03-19T14:38:27.408Z,2.17
2018-03-19T14:40:54.454Z,1.93
2018-03-19T14:43:21.500Z,1.80
2018-03-19T14:45:48.406Z,2.17
2018-03-19T14:48:15.330Z,2.30
2018-03-19T14:50:42.999Z,2.40
2018-03-19T14:53:09.859Z,2.03
2018-03-19T14:55:36.821Z,2.27
2018-03-19T14:58:03.742Z,3.23
2018-03-19T15:00:30.664Z,2.60
2018-03-19T15:02:58.395Z,10.20
2018-03-19T15:05:26.194Z,6.60
2018-03-19T15:07:53.937Z,4.70
2018-03-19T15:10:25.659Z,3.17
2018-03-19T15:12:52.539Z,2.40
2018-03-19T15:18:20.155Z,2.20
2018-03-19T15:20:47.836Z,2.10
2018-03-19T15:23:15.497Z,2.40
2018-03-19T15:25:43.153Z,3.63
2018-03-19T15:28:10.783Z,3.47
2018-03-19T15:30:37.756Z,2.50
2018-03-19T15:33:04.661Z,2.50
2018-03-19T15:35:32.306Z,2.30
2018-03-19T15:37:59.188Z,2.10
2018-03-19T15:40:26.229Z,1.70
2018-03-19T15:42:53.297Z,1.90
2018-03-19T15:45:20.445Z,2.00
2018-03-19T15:47:47.322Z,1.87
2018-03-19T15:50:15.029Z,2.03
2018-03-19T15:52:42.008Z,1.90
2018-03-19T15:55:08.902Z,2.03
2018-03-19T15:57:35.707Z,2.20
2018-03-19T16:00:02.777Z,2.90
2018-03-19T16:02:30.451Z,4.57
2018-03-19T16:04:57.341Z,3.37
2018-03-19T16:07:24.306Z,4.30
2018-03-19T16:09:51.263Z,5.10
2018-03-19T16:12:19.013Z,3.80
2018-03-19T16:15:08.239Z,3.20
2018-03-19T16:17:35.243Z,3.90
2018-03-19T16:20:02.920Z,4.37
2018-03-19T16:22:30.504Z,3.80
2018-03-19T16:24:57.463Z,4.27
2018-03-19T16:27:24.458Z,3.40
2018-03-19T16:29:51.439Z,3.47
2018-03-19T16:32:19.098Z,3.30
2018-03-19T16:34:46.112Z,3.00
2018-03-19T16:37:12.971Z,2.80
2018-03-19T16:39:39.843Z,3.03
2018-03-19T16:42:06.730Z,2.50
2018-03-19T16:44:33.676Z,2.50
2018-03-19T16:47:00.663Z,2.57
2018-03-19T16:49:28.358Z,2.30
2018-03-19T16:51:55.282Z,2.50
2018-03-19T16:54:22.896Z,2.33
2018-03-19T16:56:49.950Z,2.33
2018-03-19T16:59:16.819Z,2.87
2018-03-19T17:01:43.782Z,2.57
2018-03-19T17:04:11.787Z,2.63
2018-03-19T17:06:38.731Z,2.90
2018-03-19T17:09:05.717Z,2.57
2018-03-19T17:11:32.590Z,2.47
2018-03-19T17:13:59.473Z,2.80
2018-03-19T17:16:52.760Z,5.63
2018-03-19T17:19:19.685Z,5.87
2018-03-19T17:21:46.635Z,4.60
2018-03-19T17:24:13.600Z,5.47
2018-03-19T17:26:40.997Z,6.03
2018-03-19T17:29:08.624Z,5.33
2018-03-19T17:31:35.588Z,4.47
2018-03-19T17:34:02.711Z,4.10
2018-03-19T17:36:36.816Z,3.60
2018-03-19T17:39:04.060Z,3.70
2018-03-19T17:41:31.130Z,10.60
2018-03-19T17:43:58.266Z,14.43
2018-03-19T17:46:25.668Z,15.33
2018-03-19T17:48:52.896Z,14.50
2018-03-19T17:51:20.112Z,11.40
2018-03-19T17:53:47.975Z,8.90
2018-03-19T17:56:15.912Z,7.23
2018-03-19T17:58:43.009Z,5.57
2018-03-19T18:01:10.207Z,4.90
2018-03-19T18:03:37.384Z,5.50
2018-03-19T18:06:04.618Z,18.40
2018-03-19T18:08:33.721Z,24.50
2018-03-19T18:11:00.984Z,26.20
2018-03-19T18:13:28.157Z,32.00
2018-03-19T18:18:59.057Z,17.53
2018-03-19T18:21:26.322Z,14.83
2018-03-19T18:23:53.375Z,12.77
2018-03-19T18:26:20.593Z,11.80
2018-03-19T18:28:47.733Z,9.80
2018-03-19T18:31:15.720Z,11.23
2018-03-19T18:33:43.161Z,10.63
2018-03-19T18:36:11.427Z,8.73
2018-03-19T18:38:39.610Z,10.33
2018-03-19T18:41:07.775Z,8.00
2018-03-19T18:43:35.900Z,8.67
2018-03-19T18:46:03.437Z,16.43
2018-03-19T18:48:32.799Z,16.77
2018-03-19T18:51:00.429Z,15.00
2018-03-19T18:53:27.994Z,11.53
2018-03-19T18:55:55.967Z,10.97
2018-03-19T18:58:23.142Z,10.97
2018-03-19T19:00:50.297Z,10.77
2018-03-19T19:03:17.416Z,9.73
2018-03-19T19:05:44.658Z,9.30
2018-03-19T19:08:11.803Z,8.00
2018-03-19T19:10:38.974Z,8.03
2018-03-19T19:13:06.105Z,13.00
2018-03-19T19:18:35.656Z,17.83
2018-03-19T19:21:02.818Z,16.17
2018-03-19T19:23:29.975Z,15.77
2018-03-19T19:25:57.108Z,16.63
2018-03-19T19:28:24.296Z,15.27
2018-03-19T19:30:51.463Z,12.10
2018-03-19T19:33:19.390Z,7.90
2018-03-19T19:35:46.642Z,5.97
2018-03-19T19:38:13.794Z,4.83
2018-03-19T19:40:41.011Z,5.40
2018-03-19T19:43:08.700Z,9.00
2018-03-19T19:45:35.809Z,9.60
2018-03-19T19:48:09.161Z,10.60
2018-03-19T19:50:37.306Z,10.90
2018-03-19T19:53:04.750Z,9.90
2018-03-19T19:55:32.934Z,10.50
2018-03-19T19:58:01.219Z,10.97
2018-03-19T20:00:28.760Z,13.03
2018-03-19T20:02:56.628Z,13.27
2018-03-19T20:05:24.807Z,14.23
2018-03-19T20:07:53.193Z,12.87
2018-03-19T20:10:21.841Z,11.27
2018-03-19T20:12:49.185Z,11.57
2018-03-19T20:15:50.132Z,11.40
2018-03-19T20:18:17.637Z,13.20
2018-03-19T20:20:46.068Z,12.60
2018-03-19T20:23:13.308Z,12.40
2018-03-19T20:25:40.838Z,11.10
2018-03-19T20:28:08.939Z,9.80
2018-03-19T20:30:37.184Z,8.33
2018-03-19T20:33:05.783Z,6.87
2018-03-19T20:35:34.154Z,6.17
2018-03-19T20:38:01.368Z,11.43
2018-03-19T20:40:29.479Z,18.23
2018-03-19T20:42:57.225Z,15.00
2018-03-19T20:45:24.075Z,15.73
2018-03-19T20:47:50.868Z,10.13
2018-03-19T20:50:18.526Z,5.90
2018-03-19T20:52:45.525Z,5.20
2018-03-19T20:55:12.407Z,5.97
2018-03-19T20:57:39.410Z,5.67
2018-03-19T21:00:06.329Z,6.33
2018-03-19T21:02:33.187Z,6.87
2018-03-19T21:05:00.098Z,7.87
2018-03-19T21:07:26.937Z,7.57
2018-03-19T21:09:54.611Z,9.63
2018-03-19T21:12:21.636Z,9.77
2018-03-19T21:15:24.646Z,8.90
2018-03-19T21:17:52.457Z,9.23
2018-03-19T21:20:19.863Z,9.60
2018-03-19T21:22:47.679Z,9.90
2018-03-19T21:25:23.478Z,12.50
2018-03-19T21:28:08.722Z,9.77
2018-03-19T21:30:35.770Z,8.03
2018-03-19T21:33:02.913Z,7.00
2018-03-19T21:35:29.961Z,7.20
2018-03-19T21:37:57.013Z,6.90
2018-03-19T21:40:23.960Z,6.63
2018-03-19T21:42:51.129Z,6.50
2018-03-19T21:45:19.187Z,5.90
2018-03-19T21:47:46.235Z,6.40
2018-03-19T21:50:13.182Z,6.93
2018-03-19T21:52:40.228Z,7.57
2018-03-19T21:55:07.394Z,10.67
2018-03-19T21:57:34.646Z,12.67
2018-03-19T22:00:01.694Z,12.37
2018-03-19T22:02:28.846Z,12.70
2018-03-19T22:04:55.786Z,12.10
2018-03-19T22:07:22.835Z,11.77
2018-03-19T22:09:56.755Z,11.70
2018-03-19T22:12:23.713Z,10.73
2018-03-19T22:15:10.127Z,10.20
2018-03-19T22:17:38.988Z,8.80
2018-03-19T22:20:06.036Z,7.03
2018-03-19T22:22:33.021Z,9.03
2018-03-19T22:24:59.895Z,11.13
2018-03-19T22:27:26.887Z,11.33
2018-03-19T22:29:53.927Z,11.37
2018-03-19T22:32:21.086Z,11.67
2018-03-19T22:34:48.239Z,17.27
2018-03-19T22:37:15.394Z,22.93
2018-03-19T22:39:42.472Z,22.47
2018-03-19T22:42:10.401Z,19.20
2018-03-19T22:44:38.074Z,15.07
2018-03-19T22:47:05.736Z,10.00
2018-03-19T22:49:32.783Z,7.73
2018-03-19T22:51:59.831Z,6.17
2018-03-19T22:54:27.082Z,5.50
2018-03-19T22:56:54.130Z,5.47
2018-03-19T22:59:21.078Z,4.80
2018-03-19T23:01:47.978Z,4.50
2018-03-19T23:04:27.977Z,4.60
2018-03-19T23:06:55.028Z,7.37
2018-03-19T23:09:22.189Z,6.50
2018-03-19T23:11:49.332Z,5.53
2018-03-19T23:14:16.390Z,5.07
2018-03-19T23:16:43.430Z,5.73
2018-03-19T23:19:10.478Z,5.13
2018-03-19T23:21:37.531Z,4.57
2018-03-19T23:24:04.682Z,4.30
2018-03-19T23:26:31.835Z,4.37
2018-03-19T23:28:58.881Z,4.20
2018-03-19T23:31:25.901Z,4.30
2018-03-19T23:33:52.780Z,4.93
2018-03-19T23:36:19.836Z,7.07
2018-03-19T23:38:46.976Z,8.67
2018-03-19T23:41:14.129Z,6.67
2018-03-19T23:43:41.182Z,6.37
2018-03-19T23:46:08.126Z,6.53
2018-03-19T23:48:35.885Z,5.93
2018-03-19T23:51:03.044Z,6.13
2018-03-19T23:53:30.095Z,5.40
2018-03-19T23:55:57.144Z,5.13
2018-03-19T23:58:24.192Z,4.10
